East Dean, United Kingdom
Current Conditions -  °F | °C
As of 5:50 PM on Thursday 27 Nov 2014 (Local Time) from EGVP Reporting Station
Haze Haze  
Wind Chill: 39°   Ceiling: 30000
Heat Index: 45°   Visibility: 6mi
Dew Point: 43°   Wind: 10mph
Humidity: 93%   Direction: 60°ENE
Pressure: 29.53"   Gusts: NA
Location:  51.04°N, 1.61°W
Report Text: EGVP 271750Z 06009KT 9000 HZ FEW012 BKN300 07/06 Q1000 BLU BECMG 6000 BR SCT007 GRN
Loading
Personal Weather Stations






























Interactive Weather Map New forecast layout! Learn more

10-Day Weather Forecast

Advertisements
Track Severe Weather on mobile